Time;durP1;ratioP1;P1;durP2;ratioP2;P2;SDS_P1;SDS_P2;PMS_P1;PMS_P2;Temp;Humidity;BMP_temperature;BMP_pressure;BME280_temperature;BME280_humidity;BME280_pressure;Samples;Min_cycle;Max_cycle;Signal;HPM_P1;HPM_P2
2021/11/12 00:02:21;;;;;;;51.28;27.73;;;9.00;99.90;;;;;;4167041;28;20025;-73
2021/11/12 00:13:43;;;;;;;52.05;27.58;;;8.80;99.90;;;;;;4174053;28;20025;-73
2021/11/12 00:15:52;;;;;;;47.45;26.35;;;8.80;99.90;;;;;;4174930;28;20098;-73
2021/11/12 00:17:52;;;;;;;49.33;26.30;;;8.80;99.90;;;;;;4150621;28;20030;-73
2021/11/12 00:19:54;;;;;;;44.08;25.23;;;8.80;99.90;;;;;;4174544;28;20028;-73
2021/11/12 00:21:55;;;;;;;47.97;25.63;;;8.80;99.90;;;;;;4174424;28;20052;-73
2021/11/12 00:23:55;;;;;;;49.17;25.98;;;8.70;99.90;;;;;;4174388;28;20069;-73
2021/11/12 00:25:56;;;;;;;44.45;25.30;;;8.80;99.90;;;;;;4172925;28;20033;-73
2021/11/12 00:27:57;;;;;;;45.47;26.10;;;8.80;99.90;;;;;;4169685;28;20615;-73
2021/11/12 00:30:09;;;;;;;48.60;25.42;;;8.80;99.90;;;;;;4174207;28;20095;-73
2021/11/12 00:32:19;;;;;;;46.15;25.58;;;8.80;99.90;;;;;;4170829;28;20132;-73
2021/11/12 00:39:30;;;;;;;43.25;25.35;;;8.80;99.90;;;;;;4172874;28;20024;-73
2021/11/12 00:41:33;;;;;;;40.38;23.70;;;8.70;99.90;;;;;;4163049;28;20029;-73
2021/11/12 00:43:37;;;;;;;43.85;24.63;;;8.70;99.90;;;;;;4162329;28;20420;-73
2021/11/12 00:45:48;;;;;;;46.05;25.17;;;8.60;99.90;;;;;;4172266;28;20033;-73
2021/11/12 00:47:54;;;;;;;41.30;23.52;;;8.60;99.90;;;;;;4173094;28;20045;-73
2021/11/12 00:53:41;;;;;;;40.67;22.10;;;8.50;99.90;;;;;;4104886;28;20066;-73
2021/11/12 00:55:04;;;;;;;39.72;22.70;;;8.50;99.90;;;;;;4155930;28;20025;-73
2021/11/12 00:57:05;;;;;;;39.70;22.83;;;8.40;99.90;;;;;;4169512;28;20037;-73
2021/11/12 00:59:08;;;;;;;40.38;22.83;;;8.40;99.90;;;;;;4173757;28;20029;-73
2021/11/12 01:01:08;;;;;;;40.28;22.90;;;8.40;99.90;;;;;;4172446;28;20033;-73
2021/11/12 01:03:09;;;;;;;36.58;21.08;;;8.40;99.90;;;;;;4172462;28;20124;-73
2021/11/12 01:05:11;;;;;;;40.53;23.30;;;8.40;99.90;;;;;;4172939;28;20651;-73
2021/11/12 01:07:12;;;;;;;41.22;23.52;;;8.40;99.90;;;;;;4172477;28;20033;-73
2021/11/12 01:09:15;;;;;;;36.17;21.48;;;8.40;99.90;;;;;;4171378;28;20554;-73
2021/11/12 01:11:16;;;;;;;;;;;8.40;99.90;;;;;;4173117;28;20037;-73
2021/11/12 01:13:17;;;;;;;37.50;21.15;;;8.40;99.90;;;;;;4172675;28;20251;-73
2021/11/12 01:15:20;;;;;;;41.03;23.15;;;8.30;99.90;;;;;;4173453;28;20044;-74
2021/11/12 01:17:20;;;;;;;36.30;21.33;;;8.30;99.90;;;;;;4170018;28;20028;-73
2021/11/12 01:19:21;;;;;;;39.05;21.98;;;8.30;99.90;;;;;;4173370;28;20250;-73
2021/11/12 01:21:22;;;;;;;39.63;21.90;;;8.20;99.90;;;;;;4173523;28;20032;-73
2021/11/12 01:23:23;;;;;;;37.80;21.95;;;8.20;99.90;;;;;;4172924;28;20044;-73
2021/11/12 01:25:24;;;;;;;37.90;22.30;;;8.20;99.90;;;;;;4169096;28;20103;-73
2021/11/12 01:27:24;;;;;;;41.80;22.75;;;8.20;99.90;;;;;;4171844;28;21396;-73
2021/11/12 01:29:25;;;;;;;41.95;21.90;;;8.10;99.90;;;;;;4173300;28;20040;-73
2021/11/12 01:31:28;;;;;;;41.05;22.02;;;8.10;99.90;;;;;;4153961;28;20064;-73
2021/11/12 01:33:30;;;;;;;37.83;21.25;;;8.00;99.90;;;;;;4173448;28;20041;-73
2021/11/12 01:35:31;;;;;;;37.78;20.92;;;7.90;99.90;;;;;;4172474;28;20041;-73
2021/11/12 01:37:33;;;;;;;34.25;20.70;;;7.90;99.90;;;;;;4172363;28;20054;-73
2021/11/12 01:39:34;;;;;;;42.60;22.30;;;7.90;99.90;;;;;;4173342;28;20029;-74
2021/11/12 01:41:39;;;;;;;41.22;21.27;;;7.80;99.90;;;;;;4172791;28;20060;-73
2021/11/12 01:43:46;;;;;;;36.45;20.88;;;7.70;99.90;;;;;;4173138;28;20101;-73
2021/11/12 01:50:30;;;;;;;31.00;18.45;;;7.70;99.90;;;;;;4173736;28;20037;-73
2021/11/12 01:52:43;;;;;;;32.30;18.77;;;7.70;99.90;;;;;;4154528;28;20072;-73
2021/11/12 01:55:09;;;;;;;36.78;19.48;;;7.70;99.90;;;;;;4164341;28;20501;-73
2021/11/12 01:59:14;;;;;;;34.13;18.85;;;7.80;99.90;;;;;;4172638;28;20540;-73
2021/11/12 02:01:15;;;;;;;32.88;18.90;;;7.80;99.90;;;;;;4170508;28;20082;-73
2021/11/12 02:03:15;;;;;;;31.77;18.50;;;7.80;99.90;;;;;;4172273;28;21288;-73
2021/11/12 02:05:17;;;;;;;31.98;18.35;;;7.80;99.90;;;;;;4172977;28;20025;-74
2021/11/12 02:07:19;;;;;;;30.73;17.25;;;7.80;99.90;;;;;;4171662;28;20029;-73
2021/11/12 02:09:20;;;;;;;38.97;19.03;;;7.80;99.90;;;;;;4170386;28;20054;-73
2021/11/12 02:11:22;;;;;;;34.25;18.88;;;7.80;99.90;;;;;;4172286;28;20029;-73
2021/11/12 02:13:25;;;;;;;30.75;17.55;;;7.80;99.90;;;;;;4170702;28;20036;-73
2021/11/12 02:15:27;;;;;;;30.60;17.27;;;7.80;99.90;;;;;;4170913;28;20056;-73
2021/11/12 02:17:31;;;;;;;34.95;18.55;;;7.80;99.90;;;;;;4170626;28;20045;-73
2021/11/12 02:19:34;;;;;;;33.30;18.15;;;7.80;99.90;;;;;;4167191;28;20025;-73
2021/11/12 02:21:42;;;;;;;28.25;16.42;;;7.80;99.90;;;;;;4169608;28;20512;-73
2021/11/12 02:26:03;;;;;;;36.03;18.50;;;7.80;99.90;;;;;;4171470;28;20405;-73
2021/11/12 02:28:15;;;;;;;33.30;17.50;;;7.70;99.90;;;;;;4172079;28;20097;-73
2021/11/12 02:30:27;;;;;;;31.45;17.55;;;7.70;99.90;;;;;;4202695;28;20032;-73
2021/11/12 02:32:30;;;;;;;30.93;16.63;;;7.70;99.90;;;;;;4170592;28;20121;-73
2021/11/12 02:34:30;;;;;;;;;;;7.60;99.90;;;;;;4171650;28;20668;-73
2021/11/12 02:36:32;;;;;;;30.60;17.02;;;7.60;99.90;;;;;;4171281;28;19944;-73
2021/11/12 02:38:34;;;;;;;31.83;16.85;;;7.60;99.90;;;;;;4172376;28;20179;-73
2021/11/12 02:40:36;;;;;;;28.95;15.93;;;7.60;99.90;;;;;;4171001;28;20032;-73
2021/11/12 02:42:37;;;;;;;26.38;15.30;;;7.50;99.90;;;;;;4172083;28;20049;-73
2021/11/12 02:44:39;;;;;;;29.98;16.23;;;7.50;99.90;;;;;;4171430;28;20630;-73
2021/11/12 02:46:40;;;;;;;32.37;15.47;;;7.60;99.90;;;;;;4173468;28;20029;-73
2021/11/12 02:48:42;;;;;;;29.35;15.63;;;7.50;99.90;;;;;;4172401;28;20470;-73
2021/11/12 02:50:43;;;;;;;30.52;15.50;;;7.60;99.90;;;;;;4172124;28;20036;-73
2021/11/12 02:52:45;;;;;;;31.58;16.67;;;7.60;99.90;;;;;;4172314;28;20533;-73
2021/11/12 02:54:48;;;;;;;32.55;15.98;;;7.60;99.90;;;;;;4172227;28;20091;-73
2021/11/12 02:56:52;;;;;;;27.13;15.07;;;7.60;99.90;;;;;;4172044;28;20036;-73
2021/11/12 02:59:04;;;;;;;27.73;15.57;;;7.60;99.90;;;;;;4172179;28;20414;-73
2021/11/12 03:01:07;;;;;;;30.35;15.88;;;7.60;99.90;;;;;;4169118;28;20033;-73
2021/11/12 03:03:07;;;;;;;26.55;15.32;;;7.60;99.90;;;;;;4170957;28;20126;-73
2021/11/12 03:05:08;;;;;;;27.75;15.18;;;7.60;99.90;;;;;;4172837;28;20648;-74
2021/11/12 03:07:09;;;;;;;30.30;15.98;;;7.50;99.90;;;;;;4176113;28;20017;-73
2021/11/12 03:09:11;;;;;;;26.42;15.40;;;7.40;99.90;;;;;;4176259;28;21354;-73
2021/11/12 03:11:12;;;;;;;25.60;14.98;;;7.30;99.90;;;;;;4172206;28;20112;-73
2021/11/12 03:13:13;;;;;;;27.52;15.82;;;7.20;99.90;;;;;;4176016;28;20044;-73
2021/11/12 03:15:14;;;;;;;26.02;14.88;;;7.20;99.90;;;;;;4174470;28;20035;-74
2021/11/12 03:17:15;;;;;;;27.17;16.15;;;7.10;99.90;;;;;;4173321;28;20096;-73
2021/11/12 03:19:17;;;;;;;26.05;14.32;;;7.10;99.90;;;;;;4176235;28;20614;-73
2021/11/12 03:21:20;;;;;;;23.75;14.18;;;7.10;99.90;;;;;;4174860;28;20025;-73
2021/11/12 03:23:26;;;;;;;24.00;15.15;;;7.10;99.90;;;;;;4167115;28;20127;-73
2021/11/12 03:25:41;;;;;;;30.77;16.42;;;7.00;99.90;;;;;;4173982;28;20052;-73
2021/11/12 03:27:53;;;;;;;25.42;14.80;;;7.00;99.90;;;;;;4169135;28;20082;-73
2021/11/12 04:20:29;;;;;;;24.73;14.88;;;6.60;99.90;;;;;;4165948;28;20033;-73
2021/11/12 05:03:02;;;;;;;25.88;15.05;;;5.90;99.90;;;;;;4170100;28;20104;-73
2021/11/12 05:10:53;;;;;;;51.13;22.67;;;5.40;99.90;;;;;;4173577;28;20021;-73
2021/11/12 05:33:35;;;;;;;54.67;25.65;;;5.10;99.90;;;;;;4163118;28;21537;-73
2021/11/12 05:49:44;;;;;;;52.95;24.45;;;5.10;99.90;;;;;;4163354;28;20025;-74
2021/11/12 05:56:28;;;;;;;46.00;21.80;;;5.20;99.90;;;;;;4160633;28;20112;-74
2021/11/12 05:58:29;;;;;;;51.70;23.90;;;5.20;99.90;;;;;;4166492;28;20127;-73
2021/11/12 06:00:30;;;;;;;50.08;23.52;;;5.10;99.90;;;;;;4166206;28;20033;-74
2021/11/12 06:02:31;;;;;;;50.88;23.45;;;5.10;99.90;;;;;;4166905;28;20057;-74
2021/11/12 06:04:33;;;;;;;44.30;21.45;;;5.10;99.90;;;;;;4167952;28;20111;-74
2021/11/12 06:06:34;;;;;;;40.92;20.30;;;5.10;99.90;;;;;;4165032;28;20037;-74
2021/11/12 06:08:35;;;;;;;48.80;22.35;;;5.10;99.90;;;;;;4167085;28;20052;-74
2021/11/12 06:10:35;;;;;;;44.80;22.25;;;5.10;99.90;;;;;;4167121;28;20037;-74
2021/11/12 06:12:36;;;;;;;49.80;23.23;;;5.10;99.90;;;;;;4167520;28;20112;-74
2021/11/12 06:14:37;;;;;;;44.85;21.05;;;5.20;99.90;;;;;;4164023;28;20041;-74
2021/11/12 06:16:39;;;;;;;44.28;21.15;;;5.10;99.90;;;;;;4166094;28;20025;-74
2021/11/12 06:18:39;;;;;;;41.80;21.02;;;5.10;99.90;;;;;;4163730;28;20075;-74
2021/11/12 06:20:40;;;;;;;43.33;21.50;;;5.20;99.90;;;;;;4164967;28;20041;-74
2021/11/12 06:22:40;;;;;;;44.33;22.13;;;5.20;99.90;;;;;;4157846;28;20045;-74
2021/11/12 06:24:41;;;;;;;51.78;22.65;;;5.20;99.90;;;;;;4166130;28;20091;-73
2021/11/12 06:26:42;;;;;;;37.22;19.63;;;5.30;99.90;;;;;;4168538;28;20489;-73
2021/11/12 06:28:42;;;;;;;42.05;21.20;;;5.20;99.90;;;;;;4169042;28;20033;-73
2021/11/12 06:30:43;;;;;;;45.20;22.55;;;5.30;99.90;;;;;;4168591;28;20754;-74
2021/11/12 06:32:44;;;;;;;43.53;20.35;;;5.40;99.90;;;;;;4167443;28;20068;-74
2021/11/12 06:34:45;;;;;;;45.30;22.88;;;5.40;99.90;;;;;;4167714;28;20045;-73
2021/11/12 06:36:46;;;;;;;40.17;21.33;;;5.30;99.90;;;;;;4166248;28;20068;-74
2021/11/12 06:38:48;;;;;;;43.20;23.17;;;5.30;99.90;;;;;;4167299;28;20055;-74
2021/11/12 06:40:50;;;;;;;41.17;21.27;;;5.40;99.90;;;;;;4171072;28;20124;-73
2021/11/12 06:43:55;;;;;;;38.73;19.47;;;5.50;99.90;;;;;;4171492;28;20037;-74
2021/11/12 06:49:54;;;;;;;49.55;24.63;;;5.60;99.90;;;;;;4149443;28;20029;-73
2021/11/12 06:51:54;;;;;;;56.83;27.10;;;5.60;99.90;;;;;;4172191;28;20033;-75
2021/11/12 06:53:56;;;;;;;49.38;25.45;;;5.60;99.90;;;;;;4158614;28;20082;-75
2021/11/12 06:56:00;;;;;;;55.25;26.17;;;5.60;99.90;;;;;;4164390;28;20662;-75
2021/11/12 06:58:01;;;;;;;57.53;27.48;;;5.70;99.90;;;;;;4173349;28;20033;-75
2021/11/12 07:00:03;;;;;;;63.17;31.88;;;5.70;99.90;;;;;;4167525;28;20179;-75
2021/11/12 07:02:04;;;;;;;67.13;31.23;;;5.70;99.90;;;;;;4167002;28;20056;-75
2021/11/12 07:04:04;;;;;;;67.43;31.65;;;5.70;99.90;;;;;;4167072;28;20041;-75
2021/11/12 07:06:05;;;;;;;57.58;30.25;;;5.70;99.90;;;;;;4167675;28;20041;-75
2021/11/12 07:08:06;;;;;;;65.10;32.53;;;5.70;99.90;;;;;;4171443;28;20033;-75
2021/11/12 07:10:08;;;;;;;69.18;34.38;;;5.70;99.90;;;;;;4167592;28;20073;-75
2021/11/12 07:12:10;;;;;;;71.00;36.13;;;5.70;99.90;;;;;;4166854;28;20021;-75
2021/11/12 07:14:11;;;;;;;72.00;36.97;;;5.70;99.90;;;;;;4166926;28;20033;-75
2021/11/12 07:16:14;;;;;;;58.03;31.70;;;5.70;99.90;;;;;;4166329;28;20094;-75
2021/11/12 07:18:15;;;;;;;63.42;33.97;;;5.70;99.90;;;;;;4165141;28;20033;-75
2021/11/12 07:20:16;;;;;;;68.60;34.10;;;5.70;99.90;;;;;;4163609;28;20025;-75
2021/11/12 07:22:17;;;;;;;69.85;34.80;;;5.70;99.90;;;;;;4167382;28;20057;-75
2021/11/12 07:24:19;;;;;;;55.30;29.55;;;5.70;99.90;;;;;;4165157;28;20072;-75
2021/11/12 07:26:20;;;;;;;56.28;29.80;;;5.70;99.90;;;;;;4165273;28;20556;-75
2021/11/12 07:28:23;;;;;;;61.80;31.88;;;5.70;99.90;;;;;;4182624;28;20033;-75
2021/11/12 07:30:26;;;;;;;59.22;32.03;;;5.80;99.90;;;;;;4158350;28;20053;-75
2021/11/12 07:32:27;;;;;;;51.17;27.65;;;5.70;99.90;;;;;;4173997;28;20061;-75
2021/11/12 07:34:29;;;;;;;58.03;31.42;;;5.80;99.90;;;;;;4166806;28;20033;-72
2021/11/12 07:36:52;;;;;;;54.38;30.17;;;5.80;99.90;;;;;;4158700;28;20064;-73
2021/11/12 07:43:16;;;;;;;56.97;30.77;;;6.00;99.90;;;;;;4166676;28;20523;-72
2021/11/12 07:45:35;;;;;;;58.72;31.25;;;6.00;99.90;;;;;;4156320;28;20189;-72
2021/11/12 07:47:35;;;;;;;57.80;32.42;;;6.00;99.90;;;;;;4164532;28;20029;-73
2021/11/12 07:49:37;;;;;;;62.05;33.28;;;6.00;99.90;;;;;;4147895;28;20064;-72
2021/11/12 07:51:40;;;;;;;62.15;33.95;;;6.00;99.90;;;;;;4162637;28;20033;-72
2021/11/12 07:53:40;;;;;;;56.08;31.13;;;6.00;99.90;;;;;;4165381;28;20037;-72
2021/11/12 07:55:41;;;;;;;59.88;33.35;;;5.90;99.90;;;;;;4166048;28;20022;-72
2021/11/12 07:57:42;;;;;;;53.80;31.48;;;5.90;99.90;;;;;;4164839;28;20048;-72
2021/11/12 07:59:43;;;;;;;56.95;31.25;;;6.00;99.90;;;;;;4165519;28;20021;-72
2021/11/12 08:01:44;;;;;;;54.08;29.48;;;6.00;99.90;;;;;;4166223;28;20031;-73
2021/11/12 08:03:47;;;;;;;56.17;32.13;;;6.00;99.90;;;;;;4166320;28;20041;-72
2021/11/12 08:05:51;;;;;;;;;;;6.00;99.90;;;;;;4160014;28;20453;-72
2021/11/12 08:07:55;;;;;;;54.13;30.98;;;6.00;99.90;;;;;;4166076;28;19916;-72
2021/11/12 08:09:58;;;;;;;57.30;31.02;;;6.00;99.90;;;;;;4164062;28;20152;-72
2021/11/12 08:12:04;;;;;;;51.55;29.48;;;6.00;99.90;;;;;;4165837;28;20033;-72
2021/11/12 08:14:21;;;;;;;47.10;28.38;;;6.00;99.90;;;;;;4164632;28;20570;-72
2021/11/12 08:16:50;;;;;;;45.88;26.45;;;6.00;99.90;;;;;;4146425;28;20313;-72
2021/11/12 08:18:56;;;;;;;47.63;27.20;;;5.90;99.90;;;;;;4154181;28;20040;-71
2021/11/12 08:21:07;;;;;;;44.00;25.10;;;6.00;99.90;;;;;;4157344;28;20040;-72
2021/11/12 08:23:32;;;;;;;47.58;25.38;;;6.10;99.90;;;;;;4151708;28;20200;-72
2021/11/12 08:25:44;;;;;;;45.67;25.23;;;6.10;99.90;;;;;;4161276;28;20049;-72
2021/11/12 08:28:00;;;;;;;44.63;24.35;;;6.10;99.90;;;;;;4139716;28;20034;-72
2021/11/12 08:34:37;;;;;;;39.97;22.48;;;5.90;99.90;;;;;;4159332;28;20056;-73
2021/11/12 08:38:46;;;;;;;47.40;23.55;;;5.90;99.90;;;;;;4165903;28;20116;-73
2021/11/12 08:43:07;;;;;;;38.63;22.40;;;5.80;99.90;;;;;;4165550;28;20524;-72
2021/11/12 08:47:15;;;;;;;38.88;24.13;;;5.80;99.90;;;;;;4163246;28;20413;-72
2021/11/12 08:49:28;;;;;;;36.55;23.23;;;5.80;99.90;;;;;;4163727;28;20452;-72
2021/11/12 08:51:34;;;;;;;38.90;22.95;;;5.80;99.90;;;;;;4162293;28;20025;-72
2021/11/12 08:53:35;;;;;;;36.78;22.55;;;5.80;99.90;;;;;;4163171;28;20036;-72
2021/11/12 08:55:37;;;;;;;37.95;22.15;;;5.90;99.90;;;;;;4164969;28;20040;-72
2021/11/12 08:57:39;;;;;;;40.75;24.42;;;5.90;99.90;;;;;;4163987;28;20040;-72
2021/11/12 08:59:42;;;;;;;39.58;23.13;;;5.90;99.90;;;;;;4165933;28;20037;-72
2021/11/12 09:01:43;;;;;;;39.78;22.65;;;6.00;99.90;;;;;;4164375;28;20025;-72
2021/11/12 09:03:44;;;;;;;39.65;24.13;;;5.90;99.90;;;;;;4160039;28;20106;-72
2021/11/12 09:05:44;;;;;;;40.95;24.65;;;5.90;99.90;;;;;;4163815;28;20037;-72
2021/11/12 09:07:46;;;;;;;37.53;21.55;;;5.90;99.90;;;;;;4164226;28;20052;-72
2021/11/12 09:09:51;;;;;;;37.75;23.75;;;5.90;99.90;;;;;;4165148;28;20048;-72
2021/11/12 09:11:53;;;;;;;39.92;23.80;;;5.90;99.90;;;;;;4164596;28;20299;-72
2021/11/12 09:14:00;;;;;;;42.22;25.15;;;5.80;99.90;;;;;;4164381;28;20037;-72
2021/11/12 09:16:06;;;;;;;41.40;23.60;;;5.90;99.90;;;;;;4143756;28;20044;-72
2021/11/12 09:18:06;;;;;;;41.63;25.05;;;5.80;99.90;;;;;;4166026;28;20073;-72
2021/11/12 09:20:07;;;;;;;43.50;23.65;;;5.80;99.90;;;;;;4162396;28;20044;-73
2021/11/12 09:22:08;;;;;;;44.25;25.33;;;5.80;99.90;;;;;;4164913;28;20064;-72
2021/11/12 09:24:09;;;;;;;39.83;22.48;;;5.80;99.90;;;;;;4165551;28;20577;-72
2021/11/12 09:26:10;;;;;;;37.47;22.02;;;5.80;99.90;;;;;;4163064;28;20188;-72
2021/11/12 09:28:15;;;;;;;46.20;23.90;;;5.80;99.90;;;;;;4163212;28;20025;-72
2021/11/12 09:30:22;;;;;;;36.25;21.23;;;5.90;99.90;;;;;;4164279;28;20040;-72
2021/11/12 09:32:23;;;;;;;37.10;21.38;;;5.80;99.90;;;;;;4162737;28;20116;-72
2021/11/12 09:34:23;;;;;;;44.05;23.58;;;5.90;99.90;;;;;;4162721;28;20072;-72
2021/11/12 09:36:25;;;;;;;40.65;22.48;;;5.90;99.90;;;;;;4164112;28;20515;-72
2021/11/12 09:38:26;;;;;;;33.60;20.42;;;5.90;99.90;;;;;;4157585;28;20153;-73
2021/11/12 09:40:27;;;;;;;37.00;21.30;;;5.90;99.90;;;;;;4158992;28;20068;-72
2021/11/12 09:42:30;;;;;;;37.35;21.27;;;5.90;99.90;;;;;;4163774;28;20036;-73
2021/11/12 09:44:32;;;;;;;36.55;21.33;;;5.90;99.90;;;;;;4163218;28;20076;-72
2021/11/12 09:46:33;;;;;;;43.38;25.10;;;6.00;99.90;;;;;;4164202;28;20462;-72
2021/11/12 09:48:34;;;;;;;37.75;21.65;;;5.90;99.90;;;;;;4146960;28;20276;-73
2021/11/12 09:50:34;;;;;;;38.88;21.27;;;5.90;99.90;;;;;;4159019;28;20652;-73
2021/11/12 09:52:35;;;;;;;36.75;21.67;;;6.00;99.90;;;;;;4161742;28;20173;-72
2021/11/12 09:54:37;;;;;;;42.53;23.17;;;5.90;99.90;;;;;;4146348;28;20033;-72
2021/11/12 09:56:38;;;;;;;38.03;21.48;;;6.00;99.90;;;;;;4162956;28;20044;-72
2021/11/12 09:58:38;;;;;;;40.00;22.00;;;5.90;99.90;;;;;;4165287;28;20122;-72
2021/11/12 10:00:40;;;;;;;36.10;21.30;;;5.90;99.90;;;;;;4163595;28;20481;-73
2021/11/12 10:02:44;;;;;;;38.45;21.70;;;6.00;99.90;;;;;;4164344;28;20193;-73
2021/11/12 10:04:46;;;;;;;35.53;20.42;;;6.10;99.90;;;;;;4164817;28;20068;-73
2021/11/12 10:06:47;;;;;;;39.05;22.23;;;6.10;99.90;;;;;;4164606;28;20041;-74
2021/11/12 10:08:49;;;;;;;34.25;20.52;;;6.10;99.90;;;;;;4165255;28;20060;-74
2021/11/12 10:10:54;;;;;;;35.45;20.48;;;6.10;99.90;;;;;;4164941;28;20069;-73
2021/11/12 10:12:56;;;;;;;39.03;20.67;;;6.20;99.90;;;;;;4164192;28;20040;-74
2021/11/12 10:15:09;;;;;;;34.92;19.42;;;6.20;99.90;;;;;;4158417;28;20660;-74
2021/11/12 10:17:10;;;;;;;32.22;18.98;;;6.20;99.90;;;;;;4174257;28;20037;-74
2021/11/12 10:19:14;;;;;;;36.28;20.77;;;6.20;99.90;;;;;;4166206;28;20344;-74
2021/11/12 10:21:14;;;;;;;35.47;21.20;;;6.30;99.90;;;;;;4164912;28;20767;-73
2021/11/12 10:23:16;;;;;;;34.75;20.05;;;6.30;99.90;;;;;;4163738;28;20372;-72
2021/11/12 10:25:19;;;;;;;35.55;19.98;;;6.30;99.90;;;;;;4163086;28;20041;-73
2021/11/12 10:27:24;;;;;;;34.72;18.48;;;6.40;99.90;;;;;;4163298;28;20032;-74
2021/11/12 10:29:31;;;;;;;36.25;20.38;;;6.40;99.90;;;;;;4164986;28;20037;-73
2021/11/12 10:32:07;;;;;;;35.50;20.08;;;6.40;99.90;;;;;;4164248;28;20126;-74
2021/11/12 10:34:19;;;;;;;36.92;21.23;;;6.40;99.90;;;;;;4160695;28;20460;-74
2021/11/12 10:36:20;;;;;;;32.88;19.55;;;6.40;99.90;;;;;;4165110;28;20099;-73
2021/11/12 10:38:35;;;;;;;34.50;19.40;;;6.40;99.90;;;;;;4164859;28;20504;-73
2021/11/12 10:40:35;;;;;;;34.33;21.05;;;6.50;99.90;;;;;;4163835;28;20049;-74
2021/11/12 10:42:42;;;;;;;38.72;21.27;;;6.50;99.90;;;;;;4151531;28;20611;-74
2021/11/12 10:44:49;;;;;;;34.83;20.42;;;6.50;99.90;;;;;;4164925;28;20045;-74
2021/11/12 10:46:50;;;;;;;33.50;20.10;;;6.50;99.90;;;;;;4163061;28;20037;-74
2021/11/12 10:48:50;;;;;;;38.42;21.25;;;6.60;99.90;;;;;;4146569;28;20064;-73
2021/11/12 10:50:52;;;;;;;46.30;22.52;;;6.60;99.90;;;;;;4164234;28;20045;-73
2021/11/12 10:52:58;;;;;;;33.78;19.95;;;6.60;99.90;;;;;;4162964;28;20461;-74
2021/11/12 10:55:11;;;;;;;35.42;20.45;;;6.60;99.90;;;;;;4158544;28;20041;-74
2021/11/12 10:57:13;;;;;;;33.85;20.35;;;6.70;99.90;;;;;;4163958;28;20041;-73
2021/11/12 10:59:14;;;;;;;37.92;21.50;;;6.70;99.90;;;;;;4164249;28;20025;-73
2021/11/12 11:01:15;;;;;;;40.38;21.38;;;6.80;99.90;;;;;;4160845;28;20127;-74
2021/11/12 11:05:41;;;;;;;34.65;20.52;;;6.90;99.90;;;;;;5004576;23;20017;-74
2021/11/12 11:07:50;;;;;;;34.05;20.48;;;7.00;99.90;;;;;;4110507;28;20222;-71
2021/11/12 11:09:56;;;;;;;32.15;19.25;;;7.00;99.90;;;;;;4114211;28;20031;-71
2021/11/12 11:11:57;;;;;;;34.78;19.48;;;7.10;99.90;;;;;;4131105;28;20045;-71
2021/11/12 11:13:58;;;;;;;33.22;19.05;;;7.10;99.90;;;;;;4131934;28;20486;-71
2021/11/12 11:16:02;;;;;;;30.08;18.65;;;7.20;99.90;;;;;;4130332;28;20377;-71
2021/11/12 11:18:03;;;;;;;29.83;18.92;;;7.20;99.90;;;;;;4128103;28;20050;-71
2021/11/12 11:20:15;;;;;;;30.50;18.23;;;7.20;99.90;;;;;;4129010;28;20563;-71
2021/11/12 11:22:16;;;;;;;32.90;17.73;;;7.30;99.90;;;;;;4129035;28;20413;-72
2021/11/12 11:24:32;;;;;;;28.10;18.15;;;7.40;99.90;;;;;;4130657;28;20045;-71
2021/11/12 11:26:46;;;;;;;28.90;18.02;;;7.50;99.90;;;;;;4129812;28;20046;-73
2021/11/12 11:28:48;;;;;;;32.17;18.33;;;7.50;99.90;;;;;;4112122;28;20387;-71
2021/11/12 11:30:49;;;;;;;34.83;18.30;;;7.50;99.90;;;;;;4128604;28;20030;-71
2021/11/12 11:32:50;;;;;;;33.20;18.73;;;7.60;99.90;;;;;;4115268;28;20111;-71
2021/11/12 11:34:52;;;;;;;27.23;17.00;;;7.60;99.90;;;;;;4116615;28;20421;-71
2021/11/12 11:36:59;;;;;;;31.37;19.40;;;7.70;99.90;;;;;;4133259;28;20034;-71
2021/11/12 11:39:03;;;;;;;28.30;17.73;;;7.80;99.90;;;;;;4116467;28;20349;-71
2021/11/12 11:41:06;;;;;;;28.77;17.35;;;7.90;99.90;;;;;;4133473;28;20119;-71
2021/11/12 11:43:10;;;;;;;32.15;20.10;;;7.90;99.90;;;;;;4133805;28;20429;-71
2021/11/12 11:45:15;;;;;;;35.50;20.45;;;8.10;99.90;;;;;;4132354;28;20409;-71
2021/11/12 11:47:21;;;;;;;33.17;20.23;;;8.10;99.90;;;;;;4132259;28;20101;-71
2021/11/12 11:49:24;;;;;;;36.25;21.67;;;8.20;99.90;;;;;;4132732;28;20042;-71
2021/11/12 11:51:25;;;;;;;32.47;20.63;;;8.10;99.90;;;;;;4131091;28;20053;-71
2021/11/12 11:53:45;;;;;;;29.50;19.50;;;8.20;99.90;;;;;;4132942;28;20500;-71
2021/11/12 11:55:47;;;;;;;36.88;21.17;;;8.20;99.90;;;;;;4120718;28;20034;-71
2021/11/12 11:57:49;;;;;;;34.08;20.50;;;8.20;99.90;;;;;;4133368;28;20060;-72
2021/11/12 12:00:23;;;;;;;28.70;19.37;;;8.30;99.90;;;;;;4135251;28;20700;-71
2021/11/12 12:02:23;;;;;;;34.35;21.80;;;8.40;99.90;;;;;;4132811;28;20720;-71
2021/11/12 12:04:29;;;;;;;35.22;22.20;;;8.30;99.90;;;;;;4116895;28;20042;-72
2021/11/12 12:06:30;;;;;;;33.60;22.08;;;8.40;99.90;;;;;;4131478;28;20066;-71
2021/11/12 12:08:31;;;;;;;32.03;20.63;;;8.40;99.90;;;;;;4115521;28;20034;-71
2021/11/12 12:10:32;;;;;;;31.98;21.25;;;8.50;99.90;;;;;;4133239;28;20037;-71
2021/11/12 12:12:33;;;;;;;36.33;23.13;;;8.50;99.90;;;;;;4116876;28;20165;-71
2021/11/12 12:14:36;;;;;;;38.83;24.30;;;8.50;99.90;;;;;;4136280;28;20038;-72
2021/11/12 12:16:39;;;;;;;38.13;24.40;;;8.60;99.90;;;;;;4131196;28;20046;-72
2021/11/12 12:18:47;;;;;;;39.05;25.17;;;8.60;99.90;;;;;;4132989;28;20038;-71
2021/11/12 12:31:02;;;;;;;34.72;23.13;;;8.70;99.90;;;;;;4113117;28;20022;-71
2021/11/12 12:35:26;;;;;;;38.42;23.40;;;8.80;99.90;;;;;;4133424;28;20041;-72
2021/11/12 12:38:23;;;;;;;42.20;24.02;;;8.70;99.90;;;;;;4132566;28;20081;-71
2021/11/12 13:21:46;;;;;;;25.75;16.70;;;9.30;99.90;;;;;;4103368;28;20030;-71
2021/11/12 13:24:04;;;;;;;26.98;16.13;;;9.30;99.90;;;;;;4131492;28;20042;-71
2021/11/12 13:26:05;;;;;;;27.70;16.08;;;9.40;99.90;;;;;;4132084;28;20038;-71
2021/11/12 13:28:23;;;;;;;30.45;17.45;;;9.40;99.90;;;;;;4112539;28;20038;-71
2021/11/12 13:30:27;;;;;;;27.75;16.20;;;9.40;99.90;;;;;;4131571;28;20034;-71
2021/11/12 13:32:35;;;;;;;23.75;15.30;;;9.40;99.90;;;;;;4124276;28;20045;-71
2021/11/12 13:34:41;;;;;;;20.90;14.93;;;9.50;99.90;;;;;;4112515;28;20046;-71
2021/11/12 13:36:43;;;;;;;34.13;15.85;;;9.50;99.90;;;;;;4114842;28;20096;-71
2021/11/12 13:38:47;;;;;;;27.50;15.50;;;9.50;99.90;;;;;;4129520;28;20036;-71
2021/11/12 13:40:47;;;;;;;25.88;16.42;;;9.50;99.90;;;;;;4114923;28;20375;-71
2021/11/12 13:42:49;;;;;;;22.92;13.95;;;9.50;99.90;;;;;;4132665;28;20034;-71
2021/11/12 13:44:50;;;;;;;29.10;16.67;;;9.60;99.90;;;;;;4132511;28;20135;-71
2021/11/12 13:46:56;;;;;;;23.00;14.70;;;9.60;99.90;;;;;;4130968;28;20033;-71
2021/11/12 13:48:57;;;;;;;21.15;13.90;;;9.60;99.90;;;;;;4129748;28;20041;-71
2021/11/12 13:51:01;;;;;;;21.90;14.20;;;9.60;99.90;;;;;;4131142;28;20053;-71
2021/11/12 13:53:02;;;;;;;23.60;14.45;;;9.70;99.90;;;;;;4131918;28;20042;-71
2021/11/12 13:55:16;;;;;;;21.58;13.60;;;9.70;99.90;;;;;;4132526;28;20721;-71
2021/11/12 13:57:23;;;;;;;21.08;12.85;;;9.70;99.90;;;;;;4131802;28;20038;-71
2021/11/12 13:59:24;;;;;;;22.02;12.65;;;9.70;99.90;;;;;;4131759;28;20042;-71
2021/11/12 14:01:24;;;;;;;22.42;14.10;;;9.80;99.90;;;;;;4131749;28;20046;-71
2021/11/12 14:03:51;;;;;;;19.52;13.73;;;9.70;99.90;;;;;;4096307;28;20079;-71
2021/11/12 14:05:55;;;;;;;18.80;12.80;;;9.80;99.90;;;;;;4125945;28;20052;-71
2021/11/12 14:08:15;;;;;;;21.48;12.77;;;9.80;99.90;;;;;;4132889;28;20382;-71
2021/11/12 14:10:16;;;;;;;24.83;13.40;;;9.80;99.90;;;;;;4129814;28;20034;-71
2021/11/12 14:12:17;;;;;;;20.63;12.65;;;9.80;99.90;;;;;;4132168;28;20073;-71
2021/11/12 14:14:18;;;;;;;20.27;12.23;;;9.90;99.90;;;;;;4115009;28;20074;-71
2021/11/12 14:17:12;;;;;;;16.98;12.07;;;9.90;99.90;;;;;;4131368;28;20572;-71
2021/11/12 14:23:20;;;;;;;21.20;13.13;;;9.90;99.90;;;;;;4129928;28;20125;-71
2021/11/12 14:25:31;;;;;;;19.30;11.68;;;9.90;99.90;;;;;;4131615;28;20050;-71
2021/11/12 14:27:36;;;;;;;20.20;12.63;;;9.90;99.90;;;;;;4131435;28;20030;-71
2021/11/12 14:36:33;;;;;;;24.00;12.73;;;10.00;99.90;;;;;;4131756;28;20042;-71
2021/11/12 14:38:37;;;;;;;22.63;12.77;;;10.00;99.90;;;;;;4132066;28;20521;-71
2021/11/12 14:45:32;;;;;;;20.25;13.18;;;10.00;99.90;;;;;;4132602;28;20065;-71
2021/11/12 14:47:42;;;;;;;18.08;11.82;;;10.00;99.90;;;;;;4129397;28;20049;-71
2021/11/12 14:49:48;;;;;;;19.48;12.05;;;10.00;99.90;;;;;;4127158;28;20037;-71
2021/11/12 14:54:08;;;;;;;19.77;11.82;;;10.00;99.90;;;;;;4130322;28;20038;-71
2021/11/12 14:58:17;;;;;;;17.27;11.00;;;10.00;99.90;;;;;;4130937;28;20528;-71
2021/11/12 15:00:19;;;;;;;17.75;11.48;;;10.00;99.90;;;;;;4130571;28;20040;-72